createdAt,value
2019-01-06T00:01:45.998Z,3.07
2019-01-06T00:04:21.761Z,2.27
2019-01-06T00:06:59.786Z,2.80
2019-01-06T00:09:35.239Z,2.10
2019-01-06T00:12:12.069Z,2.57
2019-01-06T00:14:50.751Z,2.30
2019-01-06T00:19:28.450Z,2.20
2019-01-06T00:25:48.375Z,2.40
2019-01-06T00:28:27.123Z,2.60
2019-01-06T00:32:05.041Z,3.00
2019-01-06T00:34:46.743Z,3.10
2019-01-06T00:37:38.617Z,3.37
2019-01-06T00:40:15.125Z,4.40
2019-01-06T00:42:54.045Z,4.40
2019-01-06T00:45:35.723Z,5.07
2019-01-06T00:48:14.283Z,5.40
2019-01-06T00:51:08.337Z,5.50
2019-01-06T00:53:43.009Z,6.33
2019-01-06T00:58:22.695Z,6.60
2019-01-06T01:01:06.830Z,5.13
2019-01-06T01:03:41.649Z,5.67
2019-01-06T01:13:04.703Z,5.47
2019-01-06T01:15:48.215Z,5.00
2019-01-06T01:19:21.044Z,5.27
2019-01-06T01:21:57.263Z,5.00
2019-01-06T01:24:31.922Z,5.23
2019-01-06T01:27:07.329Z,4.67
2019-01-06T01:34:35.733Z,5.23
2019-01-06T01:37:11.039Z,4.80
2019-01-06T01:39:51.217Z,5.17
2019-01-06T01:42:24.633Z,4.93
2019-01-06T01:45:58.463Z,5.47
2019-01-06T01:48:32.819Z,5.50
2019-01-06T01:52:06.711Z,5.80
2019-01-06T01:55:39.321Z,5.47
2019-01-06T01:58:13.891Z,6.00
2019-01-06T02:00:48.051Z,6.50
2019-01-06T02:03:22.655Z,6.97
2019-01-06T02:05:57.624Z,6.70
2019-01-06T02:08:38.924Z,6.77
2019-01-06T02:11:29.526Z,7.20
2019-01-06T02:14:04.830Z,6.20
2019-01-06T02:17:39.578Z,7.00
2019-01-06T02:20:14.046Z,6.73
2019-01-06T02:22:56.258Z,6.83
2019-01-06T02:25:32.807Z,6.43
2019-01-06T02:30:11.546Z,6.97
2019-01-06T02:32:48.811Z,6.80
2019-01-06T02:35:23.347Z,8.03
2019-01-06T02:37:57.769Z,7.67
2019-01-06T02:40:31.986Z,7.47
2019-01-06T02:43:05.356Z,7.63
2019-01-06T02:45:38.659Z,7.77
2019-01-06T02:49:18.548Z,6.93
2019-01-06T02:52:51.679Z,8.00
2019-01-06T02:55:26.363Z,8.83
2019-01-06T02:58:30.966Z,8.07
2019-01-06T03:01:05.464Z,7.43
2019-01-06T03:03:40.139Z,7.80
2019-01-06T03:06:20.368Z,8.23
2019-01-06T03:08:54.869Z,8.13
2019-01-06T03:11:33.569Z,8.60
2019-01-06T03:14:08.979Z,8.33
2019-01-06T03:17:00.892Z,7.93
2019-01-06T03:20:32.859Z,7.50
2019-01-06T03:23:42.370Z,7.87
2019-01-06T03:26:19.663Z,7.67
2019-01-06T03:28:54.271Z,8.23
2019-01-06T03:31:29.773Z,7.80
2019-01-06T03:34:10.046Z,7.37
2019-01-06T03:36:46.275Z,7.97
2019-01-06T03:39:20.614Z,8.13
2019-01-06T03:41:57.884Z,7.73
2019-01-06T03:44:32.320Z,7.17
2019-01-06T03:47:11.652Z,7.43
2019-01-06T03:49:45.949Z,7.23
2019-01-06T03:52:20.707Z,6.67
2019-01-06T03:56:59.893Z,6.27
2019-01-06T03:59:34.131Z,6.40
2019-01-06T04:03:08.865Z,6.17
2019-01-06T04:05:43.242Z,5.87
2019-01-06T04:08:20.463Z,5.60
2019-01-06T04:10:54.905Z,6.10
2019-01-06T04:14:26.828Z,5.50
2019-01-06T04:17:07.912Z,5.40
2019-01-06T04:19:42.434Z,6.03
2019-01-06T04:23:14.559Z,6.73
2019-01-06T04:25:49.174Z,6.40
2019-01-06T04:30:32.335Z,6.50
2019-01-06T04:33:06.750Z,7.30
2019-01-06T04:35:40.010Z,7.43
2019-01-06T04:38:44.705Z,7.17
2019-01-06T04:41:19.024Z,7.27
2019-01-06T04:44:23.605Z,7.63
2019-01-06T04:48:01.428Z,7.00
2019-01-06T04:51:10.777Z,7.00
2019-01-06T04:54:50.496Z,7.37
2019-01-06T04:57:25.791Z,7.10
2019-01-06T05:00:04.949Z,7.23
2019-01-06T05:02:39.549Z,7.40
2019-01-06T05:05:12.845Z,7.40
2019-01-06T05:07:47.179Z,7.00
2019-01-06T05:11:19.416Z,7.30
2019-01-06T05:13:53.625Z,6.73
2019-01-06T05:16:29.921Z,6.33
2019-01-06T05:20:06.933Z,6.57
2019-01-06T05:22:41.122Z,5.90
2019-01-06T05:25:17.443Z,5.43
2019-01-06T05:27:51.523Z,6.03
2019-01-06T05:30:28.112Z,5.90
2019-01-06T05:33:04.408Z,5.40
2019-01-06T05:35:38.514Z,5.33
2019-01-06T05:38:13.070Z,5.03
2019-01-06T05:40:47.401Z,5.20
2019-01-06T05:43:21.815Z,5.83
2019-01-06T05:48:04.537Z,6.10
2019-01-06T05:52:41.604Z,5.77
2019-01-06T05:55:15.788Z,5.40
2019-01-06T05:57:57.041Z,5.63
2019-01-06T06:00:33.190Z,5.97
2019-01-06T06:03:11.286Z,5.10
2019-01-06T06:07:47.937Z,6.70
2019-01-06T06:12:23.806Z,6.47
2019-01-06T06:14:58.217Z,5.13
2019-01-06T06:17:32.701Z,5.03
2019-01-06T06:20:09.954Z,5.03
2019-01-06T06:22:46.111Z,4.60
2019-01-06T06:25:20.516Z,5.00
2019-01-06T06:29:58.337Z,4.77
2019-01-06T06:32:47.457Z,4.77
2019-01-06T06:35:24.469Z,5.27
2019-01-06T06:38:00.644Z,4.40
2019-01-06T06:40:35.060Z,4.60
2019-01-06T06:43:08.386Z,4.30
2019-01-06T06:46:12.857Z,4.03
2019-01-06T06:48:47.303Z,4.00
2019-01-06T06:52:19.338Z,4.10
2019-01-06T06:54:53.552Z,3.93
2019-01-06T06:57:42.282Z,4.33
2019-01-06T07:00:30.063Z,3.80
2019-01-06T07:03:15.289Z,4.30
2019-01-06T07:05:55.833Z,4.10
2019-01-06T07:08:44.339Z,4.00
2019-01-06T07:11:20.611Z,4.63
2019-01-06T07:13:54.953Z,3.93
2019-01-06T07:18:45.348Z,4.53
2019-01-06T07:21:19.869Z,4.57
2019-01-06T07:23:54.341Z,4.93
2019-01-06T07:26:40.707Z,5.80
2019-01-06T07:29:15.263Z,5.27
2019-01-06T07:31:53.417Z,5.20
2019-01-06T07:36:29.845Z,6.03
2019-01-06T07:39:13.906Z,5.73
2019-01-06T07:41:52.111Z,5.83
2019-01-06T07:44:41.355Z,5.97
2019-01-06T07:47:17.560Z,5.93
2019-01-06T07:49:57.084Z,6.00
2019-01-06T07:54:39.804Z,5.23
2019-01-06T07:57:14.265Z,5.00
2019-01-06T08:01:50.897Z,5.00
2019-01-06T08:04:32.355Z,4.53
2019-01-06T08:07:06.554Z,4.27
2019-01-06T08:09:41.076Z,4.30
2019-01-06T08:12:18.222Z,4.10
2019-01-06T08:14:51.545Z,3.90
2019-01-06T08:17:24.840Z,3.90
2019-01-06T08:19:59.205Z,3.93
2019-01-06T08:22:33.797Z,3.73
2019-01-06T08:25:08.219Z,3.50
2019-01-06T08:27:42.889Z,3.40
2019-01-06T08:30:20.261Z,3.63
2019-01-06T08:34:57.377Z,3.33
2019-01-06T08:37:34.315Z,3.73
2019-01-06T08:42:09.978Z,3.70
2019-01-06T08:44:44.284Z,5.10
2019-01-06T08:47:18.882Z,5.03
2019-01-06T08:49:52.473Z,4.47
2019-01-06T08:52:25.899Z,6.53
2019-01-06T08:55:00.243Z,4.00
2019-01-06T08:57:34.612Z,8.37
2019-01-06T09:00:12.911Z,5.57
2019-01-06T09:02:47.508Z,4.40
2019-01-06T09:05:22.090Z,3.40
2019-01-06T09:07:56.594Z,3.97
2019-01-06T09:15:20.244Z,3.83
2019-01-06T09:18:55.836Z,3.37
2019-01-06T09:21:30.269Z,4.37
2019-01-06T09:25:02.508Z,4.57
2019-01-06T09:27:56.157Z,5.07
2019-01-06T09:30:30.730Z,4.57
2019-01-06T09:35:11.647Z,5.03
2019-01-06T09:38:52.364Z,3.73
2019-01-06T09:41:27.051Z,3.03
2019-01-06T09:44:01.551Z,3.70
2019-01-06T09:46:39.396Z,4.50
2019-01-06T09:49:17.413Z,3.70
2019-01-06T09:51:56.521Z,3.30
2019-01-06T09:54:29.867Z,3.70
2019-01-06T09:57:04.264Z,3.67
2019-01-06T09:59:40.955Z,6.00
2019-01-06T10:02:26.240Z,8.23
2019-01-06T10:05:12.003Z,3.83
2019-01-06T10:07:49.216Z,3.20
2019-01-06T10:10:41.494Z,3.43
2019-01-06T10:13:20.460Z,3.40
2019-01-06T10:15:58.282Z,3.37
2019-01-06T10:19:13.185Z,3.80
2019-01-06T10:21:50.602Z,2.40
2019-01-06T10:26:30.589Z,2.90
2019-01-06T10:31:15.067Z,3.43
2019-01-06T10:34:00.323Z,3.73
2019-01-06T10:38:50.419Z,3.17
2019-01-06T10:44:10.641Z,2.40
2019-01-06T10:46:50.372Z,2.90
2019-01-06T10:49:30.474Z,2.30
2019-01-06T10:52:12.580Z,3.50
2019-01-06T10:54:53.939Z,4.50
2019-01-06T10:57:41.134Z,5.90
2019-01-06T11:00:17.954Z,2.80
2019-01-06T11:02:58.790Z,2.07
2019-01-06T11:06:15.909Z,2.07
2019-01-06T11:09:00.794Z,3.97
2019-01-06T11:11:43.778Z,2.50
2019-01-06T11:14:19.998Z,4.07
2019-01-06T11:17:00.363Z,4.17
2019-01-06T11:19:40.170Z,2.73
2019-01-06T11:22:20.042Z,3.00
2019-01-06T11:25:00.333Z,3.20
2019-01-06T11:28:09.614Z,2.40
2019-01-06T11:30:50.502Z,6.50
2019-01-06T11:33:40.496Z,6.63
2019-01-06T11:36:30.894Z,6.77
2019-01-06T11:44:05.817Z,4.20
2019-01-06T11:49:40.273Z,3.70
2019-01-06T11:52:17.855Z,4.60
2019-01-06T11:55:11.740Z,6.10
2019-01-06T11:57:51.938Z,3.90
2019-01-06T12:02:39.126Z,3.10
2019-01-06T12:05:16.806Z,2.47
2019-01-06T12:07:55.300Z,2.60
2019-01-06T12:10:36.915Z,2.10
2019-01-06T12:13:14.508Z,2.20
2019-01-06T12:15:56.105Z,3.63
2019-01-06T12:18:40.320Z,2.17
2019-01-06T12:21:26.865Z,2.87
2019-01-06T12:26:57.337Z,2.10
2019-01-06T12:29:43.562Z,2.77
2019-01-06T12:32:28.162Z,2.87
2019-01-06T12:35:05.594Z,2.70
2019-01-06T12:37:52.051Z,2.27
2019-01-06T13:16:45.297Z,4.67
2019-01-06T13:20:02.526Z,3.07
